sensor_id;sensor_type;location;lat;lon;timestamp;pressure;altitude;pressure_sealevel;temperature;humidity
1207;BME280;593;53.184;8.216;2023-08-12T00:00:48;101362.25;;;23.75;90.19
1207;BME280;593;53.184;8.216;2023-08-12T00:03:14;101352.34;;;23.74;90.51
1207;BME280;593;53.184;8.216;2023-08-12T00:05:39;101343.53;;;23.72;90.39
1207;BME280;593;53.184;8.216;2023-08-12T00:08:05;101352.22;;;23.71;90.76
1207;BME280;593;53.184;8.216;2023-08-12T00:10:31;101354.19;;;23.70;91.00
1207;BME280;593;53.184;8.216;2023-08-12T00:12:56;101342.16;;;23.66;90.82
1207;BME280;593;53.184;8.216;2023-08-12T00:15:22;101351.31;;;23.67;90.96
1207;BME280;593;53.184;8.216;2023-08-12T00:17:47;101342.53;;;23.65;90.97
1207;BME280;593;53.184;8.216;2023-08-12T00:20:12;101340.91;;;23.64;91.04
1207;BME280;593;53.184;8.216;2023-08-12T00:22:38;101344.06;;;23.62;91.13
1207;BME280;593;53.184;8.216;2023-08-12T00:25:05;101350.75;;;23.61;91.38
1207;BME280;593;53.184;8.216;2023-08-12T00:27:30;101357.47;;;23.60;91.78
1207;BME280;593;53.184;8.216;2023-08-12T00:29:56;101374.50;;;23.58;92.05
1207;BME280;593;53.184;8.216;2023-08-12T00:32:21;101374.88;;;23.57;92.11
1207;BME280;593;53.184;8.216;2023-08-12T00:34:46;101368.81;;;23.55;92.14
1207;BME280;593;53.184;8.216;2023-08-12T00:37:12;101378.34;;;23.54;92.10
1207;BME280;593;53.184;8.216;2023-08-12T00:39:37;101375.09;;;23.52;92.06
1207;BME280;593;53.184;8.216;2023-08-12T00:42:03;101379.84;;;23.51;92.22
1207;BME280;593;53.184;8.216;2023-08-12T00:44:28;101371.84;;;23.50;92.48
1207;BME280;593;53.184;8.216;2023-08-12T00:46:53;101373.03;;;23.49;92.40
1207;BME280;593;53.184;8.216;2023-08-12T00:49:20;101373.38;;;23.47;92.63
1207;BME280;593;53.184;8.216;2023-08-12T00:51:49;101372.91;;;23.45;92.75
1207;BME280;593;53.184;8.216;2023-08-12T00:54:15;101375.69;;;23.45;93.16
1207;BME280;593;53.184;8.216;2023-08-12T00:56:41;101368.88;;;23.43;93.17
1207;BME280;593;53.184;8.216;2023-08-12T00:59:07;101376.38;;;23.42;93.55
1207;BME280;593;53.184;8.216;2023-08-12T01:01:34;101385.09;;;23.41;93.38
1207;BME280;593;53.184;8.216;2023-08-12T01:04:00;101378.72;;;23.40;94.35
1207;BME280;593;53.184;8.216;2023-08-12T01:06:25;101381.84;;;23.39;93.80
1207;BME280;593;53.184;8.216;2023-08-12T01:08:51;101375.34;;;23.35;93.77
1207;BME280;593;53.184;8.216;2023-08-12T01:11:21;101374.44;;;23.31;93.81
1207;BME280;593;53.184;8.216;2023-08-12T01:14:08;101380.88;;;23.35;94.53
1207;BME280;593;53.184;8.216;2023-08-12T01:16:40;101381.25;;;23.33;93.99
1207;BME280;593;53.184;8.216;2023-08-12T01:19:10;101379.63;;;23.32;94.10
1207;BME280;593;53.184;8.216;2023-08-12T01:21:41;101383.56;;;23.31;94.49
1207;BME280;593;53.184;8.216;2023-08-12T01:24:08;101390.28;;;23.30;94.81
1207;BME280;593;53.184;8.216;2023-08-12T01:26:34;101377.00;;;23.24;95.03
1207;BME280;593;53.184;8.216;2023-08-12T01:28:59;101393.41;;;23.29;95.22
1207;BME280;593;53.184;8.216;2023-08-12T01:31:43;101400.94;;;23.28;95.83
1207;BME280;593;53.184;8.216;2023-08-12T01:34:19;101401.28;;;23.27;96.14
1207;BME280;593;53.184;8.216;2023-08-12T01:36:50;101399.66;;;23.26;96.93
1207;BME280;593;53.184;8.216;2023-08-12T01:39:16;101386.13;;;23.24;97.12
1207;BME280;593;53.184;8.216;2023-08-12T01:41:44;101388.91;;;23.24;97.48
1207;BME280;593;53.184;8.216;2023-08-12T01:44:10;101389.25;;;23.23;97.75
1207;BME280;593;53.184;8.216;2023-08-12T01:46:36;101387.66;;;23.22;97.82
1207;BME280;593;53.184;8.216;2023-08-12T01:49:01;101377.94;;;23.16;98.44
1207;BME280;593;53.184;8.216;2023-08-12T01:51:27;101380.00;;;23.19;98.56
1207;BME280;593;53.184;8.216;2023-08-12T01:53:52;101370.88;;;23.18;98.61
1207;BME280;593;53.184;8.216;2023-08-12T01:56:17;101360.00;;;23.13;99.47
1207;BME280;593;53.184;8.216;2023-08-12T01:58:43;101373.19;;;23.16;99.61
1207;BME280;593;53.184;8.216;2023-08-12T02:01:08;101375.97;;;23.16;99.74
1207;BME280;593;53.184;8.216;2023-08-12T02:03:33;101358.84;;;23.14;99.74
1207;BME280;593;53.184;8.216;2023-08-12T02:05:59;101360.81;;;23.14;100.00
1207;BME280;593;53.184;8.216;2023-08-12T02:08:24;101355.63;;;23.12;100.00
1207;BME280;593;53.184;8.216;2023-08-12T02:10:49;101350.06;;;23.12;100.00
1207;BME280;593;53.184;8.216;2023-08-12T02:13:15;101342.09;;;23.11;100.00
1207;BME280;593;53.184;8.216;2023-08-12T02:15:40;101344.03;;;23.10;100.00
1207;BME280;593;53.184;8.216;2023-08-12T02:18:05;101333.19;;;23.05;100.00
1207;BME280;593;53.184;8.216;2023-08-12T02:20:31;101334.44;;;23.08;100.00
1207;BME280;593;53.184;8.216;2023-08-12T02:22:56;101321.75;;;23.07;100.00
1207;BME280;593;53.184;8.216;2023-08-12T02:25:21;101318.97;;;23.07;100.00
1207;BME280;593;53.184;8.216;2023-08-12T02:27:47;101313.75;;;23.05;100.00
1207;BME280;593;53.184;8.216;2023-08-12T02:30:12;101309.38;;;23.04;100.00
1207;BME280;593;53.184;8.216;2023-08-12T02:32:37;101306.94;;;23.03;100.00
1207;BME280;593;53.184;8.216;2023-08-12T02:35:03;101294.22;;;23.02;100.00
1207;BME280;593;53.184;8.216;2023-08-12T02:37:28;101276.66;;;22.97;100.00
1207;BME280;593;53.184;8.216;2023-08-12T02:39:54;101277.91;;;23.00;100.00
1207;BME280;593;53.184;8.216;2023-08-12T02:42:19;101281.88;;;22.99;100.00
1207;BME280;593;53.184;8.216;2023-08-12T02:44:44;101273.88;;;22.97;100.00
1207;BME280;593;53.184;8.216;2023-08-12T02:47:10;101277.81;;;22.96;100.00
1207;BME280;593;53.184;8.216;2023-08-12T02:49:35;101281.75;;;22.95;100.00
1207;BME280;593;53.184;8.216;2023-08-12T02:52:00;101272.59;;;22.95;100.00
1207;BME280;593;53.184;8.216;2023-08-12T02:54:26;101270.19;;;22.93;100.00
1207;BME280;593;53.184;8.216;2023-08-12T02:56:51;101276.88;;;22.92;100.00
1207;BME280;593;53.184;8.216;2023-08-12T02:59:16;101269.75;;;22.91;100.00
1207;BME280;593;53.184;8.216;2023-08-12T03:01:42;101270.88;;;22.90;100.00
1207;BME280;593;53.184;8.216;2023-08-12T03:04:07;101274.03;;;22.89;100.00
1207;BME280;593;53.184;8.216;2023-08-12T03:06:33;101274.72;;;22.86;100.00
1207;BME280;593;53.184;8.216;2023-08-12T03:08:58;101258.06;;;22.86;100.00
1207;BME280;593;53.184;8.216;2023-08-12T03:11:24;101268.72;;;22.84;100.00
1207;BME280;593;53.184;8.216;2023-08-12T03:13:49;101268.72;;;22.84;100.00
1207;BME280;593;53.184;8.216;2023-08-12T03:16:15;101264.31;;;22.83;100.00
1207;BME280;593;53.184;8.216;2023-08-12T03:18:40;101258.31;;;22.81;100.00
1207;BME280;593;53.184;8.216;2023-08-12T03:21:07;101267.00;;;22.79;100.00
1207;BME280;593;53.184;8.216;2023-08-12T03:23:32;101263.41;;;22.79;100.00
1207;BME280;593;53.184;8.216;2023-08-12T03:25:57;101259.81;;;22.78;100.00
1207;BME280;593;53.184;8.216;2023-08-12T03:28:23;101253.81;;;22.76;100.00
1207;BME280;593;53.184;8.216;2023-08-12T03:30:52;101252.19;;;22.75;100.00
1207;BME280;593;53.184;8.216;2023-08-12T03:33:18;101247.34;;;22.72;100.00
1207;BME280;593;53.184;8.216;2023-08-12T03:35:47;101240.19;;;22.71;100.00
1207;BME280;593;53.184;8.216;2023-08-12T03:38:13;101244.47;;;22.69;100.00
1207;BME280;593;53.184;8.216;2023-08-12T03:40:40;101240.06;;;22.68;100.00
1207;BME280;593;53.184;8.216;2023-08-12T03:43:05;101242.84;;;22.68;100.00
1207;BME280;593;53.184;8.216;2023-08-12T03:45:30;101239.25;;;22.67;100.00
1207;BME280;593;53.184;8.216;2023-08-12T03:47:56;101243.22;;;22.66;100.00
1207;BME280;593;53.184;8.216;2023-08-12T03:50:21;101232.09;;;22.66;100.00
1207;BME280;593;53.184;8.216;2023-08-12T03:52:47;101229.66;;;22.65;100.00
1207;BME280;593;53.184;8.216;2023-08-12T03:55:12;101234.75;;;22.63;100.00
1207;BME280;593;53.184;8.216;2023-08-12T03:57:38;101222.84;;;22.62;100.00
1207;BME280;593;53.184;8.216;2023-08-12T04:00:03;101228.72;;;22.61;100.00
1207;BME280;593;53.184;8.216;2023-08-12T04:02:29;101229.09;;;22.59;100.00
1207;BME280;593;53.184;8.216;2023-08-12T04:04:55;101224.69;;;22.58;100.00
1207;BME280;593;53.184;8.216;2023-08-12T04:07:20;101237.75;;;22.58;100.00
1207;BME280;593;53.184;8.216;2023-08-12T04:09:46;101245.25;;;22.57;100.00
1207;BME280;593;53.184;8.216;2023-08-12T04:12:11;101240.88;;;22.56;100.00
1207;BME280;593;53.184;8.216;2023-08-12T04:14:36;101233.69;;;22.55;100.00
1207;BME280;593;53.184;8.216;2023-08-12T04:17:02;101232.09;;;22.54;100.00
1207;BME280;593;53.184;8.216;2023-08-12T04:19:27;101237.97;;;22.53;100.00
1207;BME280;593;53.184;8.216;2023-08-12T04:21:52;101235.56;;;22.51;100.00
1207;BME280;593;53.184;8.216;2023-08-12T04:24:18;101223.31;;;22.52;100.00
1207;BME280;593;53.184;8.216;2023-08-12T04:26:43;101216.50;;;22.50;100.00
1207;BME280;593;53.184;8.216;2023-08-12T04:29:09;101220.44;;;22.49;100.00
1207;BME280;593;53.184;8.216;2023-08-12T04:31:34;101225.16;;;22.48;100.00
1207;BME280;593;53.184;8.216;2023-08-12T04:33:59;101230.25;;;22.46;100.00
1207;BME280;593;53.184;8.216;2023-08-12T04:36:25;101228.63;;;22.45;100.00
1207;BME280;593;53.184;8.216;2023-08-12T04:38:50;101213.94;;;22.45;100.00
1207;BME280;593;53.184;8.216;2023-08-12T04:41:15;101230.13;;;22.43;100.00
1207;BME280;593;53.184;8.216;2023-08-12T04:43:41;101221.00;;;22.42;100.00
1207;BME280;593;53.184;8.216;2023-08-12T04:46:07;101232.47;;;22.41;100.00
1207;BME280;593;53.184;8.216;2023-08-12T04:48:33;101221.72;;;22.39;100.00
1207;BME280;593;53.184;8.216;2023-08-12T04:50:58;101224.50;;;22.39;100.00
1207;BME280;593;53.184;8.216;2023-08-12T04:53:26;101213.97;;;22.32;100.00
1207;BME280;593;53.184;8.216;2023-08-12T04:55:52;101217.69;;;22.37;100.00
1207;BME280;593;53.184;8.216;2023-08-12T04:58:17;101218.81;;;22.35;100.00
1207;BME280;593;53.184;8.216;2023-08-12T05:00:43;101216.06;;;22.35;100.00
1207;BME280;593;53.184;8.216;2023-08-12T05:03:08;101212.47;;;22.35;100.00
1207;BME280;593;53.184;8.216;2023-08-12T05:05:33;101214.78;;;22.33;100.00
1207;BME280;593;53.184;8.216;2023-08-12T05:07:59;101218.38;;;22.33;100.00
1207;BME280;593;53.184;8.216;2023-08-12T05:10:24;101212.00;;;22.33;100.00
1207;BME280;593;53.184;8.216;2023-08-12T05:12:49;101211.56;;;22.31;100.00
1207;BME280;593;53.184;8.216;2023-08-12T05:15:17;101197.69;;;22.31;100.00
1207;BME280;593;53.184;8.216;2023-08-12T05:17:42;101188.00;;;22.25;100.00
1207;BME280;593;53.184;8.216;2023-08-12T05:20:08;101196.88;;;22.30;100.00
1207;BME280;593;53.184;8.216;2023-08-12T05:22:33;101195.75;;;22.31;100.00
1207;BME280;593;53.184;8.216;2023-08-12T05:24:59;101193.28;;;22.30;100.00
1207;BME280;593;53.184;8.216;2023-08-12T05:27:24;101198.84;;;22.30;100.00
1207;BME280;593;53.184;8.216;2023-08-12T05:29:50;101204.06;;;22.31;100.00
1207;BME280;593;53.184;8.216;2023-08-12T05:32:15;101196.56;;;22.32;100.00
1207;BME280;593;53.184;8.216;2023-08-12T05:34:40;101195.38;;;22.33;100.00
1207;BME280;593;53.184;8.216;2023-08-12T05:37:06;101186.72;;;22.34;100.00
1207;BME280;593;53.184;8.216;2023-08-12T05:39:31;101189.16;;;22.36;100.00
1207;BME280;593;53.184;8.216;2023-08-12T05:41:56;101190.06;;;22.40;100.00
1207;BME280;593;53.184;8.216;2023-08-12T05:44:22;101190.88;;;22.41;100.00
1207;BME280;593;53.184;8.216;2023-08-12T05:46:47;101188.09;;;22.41;100.00
1207;BME280;593;53.184;8.216;2023-08-12T05:49:12;101188.53;;;22.43;100.00
1207;BME280;593;53.184;8.216;2023-08-12T05:51:38;101195.72;;;22.44;100.00
1207;BME280;593;53.184;8.216;2023-08-12T05:54:04;101192.59;;;22.45;100.00
1207;BME280;593;53.184;8.216;2023-08-12T05:56:29;101190.25;;;22.47;100.00
1207;BME280;593;53.184;8.216;2023-08-12T05:58:55;101193.84;;;22.48;100.00
1207;BME280;593;53.184;8.216;2023-08-12T06:01:20;101184.38;;;22.49;100.00
1207;BME280;593;53.184;8.216;2023-08-12T06:03:46;101185.66;;;22.51;100.00
1207;BME280;593;53.184;8.216;2023-08-12T06:06:11;101191.66;;;22.53;100.00
1207;BME280;593;53.184;8.216;2023-08-12T06:08:36;101196.06;;;22.54;100.00
1207;BME280;593;53.184;8.216;2023-08-12T06:11:02;101185.66;;;22.51;100.00
1207;BME280;593;53.184;8.216;2023-08-12T06:13:27;101191.41;;;22.58;100.00
1207;BME280;593;53.184;8.216;2023-08-12T06:15:52;101199.38;;;22.60;100.00
1207;BME280;593;53.184;8.216;2023-08-12T06:18:18;101192.69;;;22.61;100.00
1207;BME280;593;53.184;8.216;2023-08-12T06:20:43;101195.94;;;22.63;100.00
1207;BME280;593;53.184;8.216;2023-08-12T06:23:08;101193.97;;;22.63;100.00
1207;BME280;593;53.184;8.216;2023-08-12T06:25:34;101193.59;;;22.65;100.00
1207;BME280;593;53.184;8.216;2023-08-12T06:28:01;101188.41;;;22.63;100.00
1207;BME280;593;53.184;8.216;2023-08-12T06:30:29;101189.00;;;22.69;100.00
1207;BME280;593;53.184;8.216;2023-08-12T06:32:54;101178.72;;;22.69;100.00
1207;BME280;593;53.184;8.216;2023-08-12T06:35:19;101179.63;;;22.73;100.00
1207;BME280;593;53.184;8.216;2023-08-12T06:37:45;101185.63;;;22.75;100.00
1207;BME280;593;53.184;8.216;2023-08-12T06:40:10;101178.91;;;22.76;100.00
1207;BME280;593;53.184;8.216;2023-08-12T06:42:36;101175.78;;;22.78;100.00
1207;BME280;593;53.184;8.216;2023-08-12T06:45:01;101175.44;;;22.79;100.00
1207;BME280;593;53.184;8.216;2023-08-12T06:47:29;101183.41;;;22.81;100.00
1207;BME280;593;53.184;8.216;2023-08-12T06:49:55;101181.06;;;22.83;100.00
1207;BME280;593;53.184;8.216;2023-08-12T06:52:20;101177.59;;;22.86;100.00
1207;BME280;593;53.184;8.216;2023-08-12T06:54:45;101174.47;;;22.87;100.00
1207;BME280;593;53.184;8.216;2023-08-12T06:57:11;101163.03;;;22.89;100.00
1207;BME280;593;53.184;8.216;2023-08-12T06:59:37;101150.66;;;22.86;100.00
1207;BME280;593;53.184;8.216;2023-08-12T07:02:02;101152.81;;;22.93;100.00
1207;BME280;593;53.184;8.216;2023-08-12T07:04:28;101144.16;;;22.94;100.00
1207;BME280;593;53.184;8.216;2023-08-12T07:06:53;101150.97;;;22.97;100.00
1207;BME280;593;53.184;8.216;2023-08-12T07:09:19;101143.09;;;22.99;100.00
1207;BME280;593;53.184;8.216;2023-08-12T07:11:44;101150.72;;;23.02;100.00
1207;BME280;593;53.184;8.216;2023-08-12T07:14:09;101148.41;;;23.04;100.00
1207;BME280;593;53.184;8.216;2023-08-12T07:16:35;101148.47;;;23.08;100.00
1207;BME280;593;53.184;8.216;2023-08-12T07:19:01;101143.41;;;23.10;100.00
1207;BME280;593;53.184;8.216;2023-08-12T07:21:26;101143.84;;;23.12;100.00
1207;BME280;593;53.184;8.216;2023-08-12T07:23:51;101142.66;;;23.13;100.00
1207;BME280;593;53.184;8.216;2023-08-12T07:26:17;101139.19;;;23.16;100.00
1207;BME280;593;53.184;8.216;2023-08-12T07:28:42;101135.72;;;23.19;100.00
1207;BME280;593;53.184;8.216;2023-08-12T07:31:07;101138.59;;;23.22;100.00
1207;BME280;593;53.184;8.216;2023-08-12T07:33:33;101129.44;;;23.22;100.00
1207;BME280;593;53.184;8.216;2023-08-12T07:35:59;101138.66;;;23.26;100.00
1207;BME280;593;53.184;8.216;2023-08-12T07:38:24;101137.97;;;23.29;100.00
1207;BME280;593;53.184;8.216;2023-08-12T07:40:50;101137.25;;;23.32;100.00
1207;BME280;593;53.184;8.216;2023-08-12T07:43:15;101136.53;;;23.35;100.00
1207;BME280;593;53.184;8.216;2023-08-12T07:45:40;101134.25;;;23.37;100.00
1207;BME280;593;53.184;8.216;2023-08-12T07:48:06;101138.28;;;23.39;100.00
1207;BME280;593;53.184;8.216;2023-08-12T07:50:31;101143.47;;;23.41;100.00
1207;BME280;593;53.184;8.216;2023-08-12T07:52:57;101142.31;;;23.42;100.00
1207;BME280;593;53.184;8.216;2023-08-12T07:55:22;101141.94;;;23.43;100.00
1207;BME280;593;53.184;8.216;2023-08-12T07:57:47;101139.53;;;23.42;100.00
1207;BME280;593;53.184;8.216;2023-08-12T08:00:13;101150.38;;;23.47;100.00
1207;BME280;593;53.184;8.216;2023-08-12T08:02:39;101148.06;;;23.49;100.00
1207;BME280;593;53.184;8.216;2023-08-12T08:05:05;101147.25;;;23.48;100.00
1207;BME280;593;53.184;8.216;2023-08-12T08:07:30;101141.78;;;23.52;100.00
1207;BME280;593;53.184;8.216;2023-08-12T08:09:57;101146.97;;;23.53;100.00
1207;BME280;593;53.184;8.216;2023-08-12T08:12:22;101139.91;;;23.56;100.00
1207;BME280;593;53.184;8.216;2023-08-12T08:14:47;101142.31;;;23.57;100.00
1207;BME280;593;53.184;8.216;2023-08-12T08:17:13;101145.09;;;23.57;100.00
1207;BME280;593;53.184;8.216;2023-08-12T08:19:38;101139.53;;;23.57;100.00
1207;BME280;593;53.184;8.216;2023-08-12T08:22:03;101133.25;;;23.60;100.00
1207;BME280;593;53.184;8.216;2023-08-12T08:24:29;101140.00;;;23.59;100.00
1207;BME280;593;53.184;8.216;2023-08-12T08:26:54;101134.06;;;23.61;100.00
1207;BME280;593;53.184;8.216;2023-08-12T08:29:20;101132.91;;;23.62;100.00
1207;BME280;593;53.184;8.216;2023-08-12T08:31:46;101137.28;;;23.63;100.00
1207;BME280;593;53.184;8.216;2023-08-12T08:34:11;101134.50;;;23.63;100.00
1207;BME280;593;53.184;8.216;2023-08-12T08:36:37;101134.94;;;23.65;100.00
1207;BME280;593;53.184;8.216;2023-08-12T08:39:02;101126.28;;;23.67;100.00
1207;BME280;593;53.184;8.216;2023-08-12T08:41:30;101120.72;;;23.67;100.00
1207;BME280;593;53.184;8.216;2023-08-12T08:44:00;101124.75;;;23.69;100.00
1207;BME280;593;53.184;8.216;2023-08-12T08:46:27;101126.34;;;23.70;100.00
1207;BME280;593;53.184;8.216;2023-08-12T08:48:54;101122.41;;;23.71;100.00
1207;BME280;593;53.184;8.216;2023-08-12T08:51:20;101124.13;;;23.76;100.00
1207;BME280;593;53.184;8.216;2023-08-12T08:53:46;101118.38;;;23.69;100.00
1207;BME280;593;53.184;8.216;2023-08-12T08:56:12;101114.63;;;23.61;100.00
1207;BME280;593;53.184;8.216;2023-08-12T08:58:38;101117.22;;;23.54;100.00
1207;BME280;593;53.184;8.216;2023-08-12T09:01:05;101107.09;;;23.46;100.00
1207;BME280;593;53.184;8.216;2023-08-12T09:03:33;101116.31;;;23.50;100.00
1207;BME280;593;53.184;8.216;2023-08-12T09:06:00;101111.50;;;23.47;100.00
1207;BME280;593;53.184;8.216;2023-08-12T09:08:27;101108.25;;;23.45;100.00
1207;BME280;593;53.184;8.216;2023-08-12T09:10:53;101104.97;;;23.39;100.00
1207;BME280;593;53.184;8.216;2023-08-12T09:13:20;101105.97;;;23.35;100.00
1207;BME280;593;53.184;8.216;2023-08-12T09:15:45;101094.09;;;23.34;100.00
1207;BME280;593;53.184;8.216;2023-08-12T09:18:10;101092.47;;;23.33;100.00
1207;BME280;593;53.184;8.216;2023-08-12T09:20:36;101085.97;;;23.41;100.00
1207;BME280;593;53.184;8.216;2023-08-12T09:23:02;101048.31;;;23.28;100.00
1207;BME280;593;53.184;8.216;2023-08-12T09:25:28;101086.94;;;23.49;100.00
1207;BME280;593;53.184;8.216;2023-08-12T09:27:55;101088.53;;;23.50;100.00
1207;BME280;593;53.184;8.216;2023-08-12T09:30:23;101094.84;;;23.47;100.00
1207;BME280;593;53.184;8.216;2023-08-12T09:33:03;101103.34;;;23.38;100.00
1207;BME280;593;53.184;8.216;2023-08-12T09:35:47;101095.25;;;23.33;100.00
1207;BME280;593;53.184;8.216;2023-08-12T09:38:13;101092.59;;;23.37;100.00
1207;BME280;593;53.184;8.216;2023-08-12T09:40:39;101083.53;;;23.40;100.00
1207;BME280;593;53.184;8.216;2023-08-12T09:43:05;101070.88;;;23.42;100.00
1207;BME280;593;53.184;8.216;2023-08-12T09:45:32;101065.44;;;23.46;100.00
1207;BME280;593;53.184;8.216;2023-08-12T09:47:58;101054.78;;;23.48;100.00
1207;BME280;593;53.184;8.216;2023-08-12T09:50:27;101058.00;;;23.50;100.00
1207;BME280;593;53.184;8.216;2023-08-12T09:52:54;101071.53;;;23.51;100.00
1207;BME280;593;53.184;8.216;2023-08-12T09:55:21;101077.53;;;23.53;100.00
1207;BME280;593;53.184;8.216;2023-08-12T09:57:49;101070.00;;;23.54;100.00
1207;BME280;593;53.184;8.216;2023-08-12T10:00:19;101060.88;;;23.53;100.00
1207;BME280;593;53.184;8.216;2023-08-12T10:02:46;101052.16;;;23.55;100.00
1207;BME280;593;53.184;8.216;2023-08-12T10:05:17;101054.94;;;23.55;100.00
1207;BME280;593;53.184;8.216;2023-08-12T10:07:45;101057.72;;;23.55;100.00
1207;BME280;593;53.184;8.216;2023-08-12T10:10:12;101070.44;;;23.56;100.00
1207;BME280;593;53.184;8.216;2023-08-12T10:12:38;101058.47;;;23.52;100.00
1207;BME280;593;53.184;8.216;2023-08-12T10:15:05;101061.31;;;23.55;100.00
1207;BME280;593;53.184;8.216;2023-08-12T10:17:33;101066.06;;;23.55;100.00
1207;BME280;593;53.184;8.216;2023-08-12T10:20:00;101060.50;;;23.55;100.00
1207;BME280;593;53.184;8.216;2023-08-12T10:22:29;101060.88;;;23.53;100.00
1207;BME280;593;53.184;8.216;2023-08-12T10:24:56;101056.13;;;23.54;100.00
1207;BME280;593;53.184;8.216;2023-08-12T10:27:22;101033.91;;;23.54;100.00
1207;BME280;593;53.184;8.216;2023-08-12T10:29:51;101030.22;;;23.50;100.00
1207;BME280;593;53.184;8.216;2023-08-12T10:32:16;101053.69;;;23.52;100.00
1207;BME280;593;53.184;8.216;2023-08-12T10:34:42;101043.75;;;23.51;100.00
1207;BME280;593;53.184;8.216;2023-08-12T10:37:09;101044.91;;;23.50;100.00
1207;BME280;593;53.184;8.216;2023-08-12T10:39:36;101046.53;;;23.51;100.00
1207;BME280;593;53.184;8.216;2023-08-12T10:42:02;101037.41;;;23.51;100.00
1207;BME280;593;53.184;8.216;2023-08-12T10:44:49;101039.34;;;23.50;100.00
1207;BME280;593;53.184;8.216;2023-08-12T10:47:15;101041.69;;;23.48;100.00
1207;BME280;593;53.184;8.216;2023-08-12T10:49:48;101042.13;;;23.50;100.00
1207;BME280;593;53.184;8.216;2023-08-12T10:52:28;101039.34;;;23.50;100.00
1207;BME280;593;53.184;8.216;2023-08-12T10:54:54;101033.81;;;23.50;100.00
1207;BME280;593;53.184;8.216;2023-08-12T10:57:34;101030.69;;;23.52;100.00
1207;BME280;593;53.184;8.216;2023-08-12T11:00:03;101035.44;;;23.51;100.00
1207;BME280;593;53.184;8.216;2023-08-12T11:02:31;101025.13;;;23.52;100.00
1207;BME280;593;53.184;8.216;2023-08-12T11:05:10;101025.13;;;23.52;100.00
1207;BME280;593;53.184;8.216;2023-08-12T11:10:09;101027.91;;;23.52;100.00
1207;BME280;593;53.184;8.216;2023-08-12T11:12:35;101022.78;;;23.54;100.00
1207;BME280;593;53.184;8.216;2023-08-12T11:15:03;101012.50;;;23.54;100.00
1207;BME280;593;53.184;8.216;2023-08-12T11:17:40;101016.06;;;23.55;100.00
1207;BME280;593;53.184;8.216;2023-08-12T11:20:11;101018.81;;;23.55;100.00
1207;BME280;593;53.184;8.216;2023-08-12T11:22:38;101012.13;;;23.56;100.00
1207;BME280;593;53.184;8.216;2023-08-12T11:25:11;101009.34;;;23.56;100.00
1207;BME280;593;53.184;8.216;2023-08-12T11:30:03;101007.00;;;23.58;100.00
1207;BME280;593;53.184;8.216;2023-08-12T11:32:29;101001.44;;;23.58;100.00
1207;BME280;593;53.184;8.216;2023-08-12T11:34:54;100996.31;;;23.60;100.00
1207;BME280;593;53.184;8.216;2023-08-12T11:37:20;100982.44;;;23.60;100.00
1207;BME280;593;53.184;8.216;2023-08-12T11:39:45;100982.44;;;23.60;100.00
1207;BME280;593;53.184;8.216;2023-08-12T11:42:11;100989.63;;;23.61;100.00
1207;BME280;593;53.184;8.216;2023-08-12T11:44:36;100980.13;;;23.62;100.00
1207;BME280;593;53.184;8.216;2023-08-12T11:47:01;100973.75;;;23.62;100.00
1207;BME280;593;53.184;8.216;2023-08-12T11:49:27;100974.19;;;23.64;100.00
1207;BME280;593;53.184;8.216;2023-08-12T11:51:52;100967.50;;;23.65;100.00
1207;BME280;593;53.184;8.216;2023-08-12T11:54:18;100961.56;;;23.66;100.00
1207;BME280;593;53.184;8.216;2023-08-12T11:56:43;100949.91;;;23.60;100.00
1207;BME280;593;53.184;8.216;2023-08-12T11:59:09;100958.41;;;23.68;100.00
1207;BME280;593;53.184;8.216;2023-08-12T12:01:34;100958.06;;;23.69;100.00
1207;BME280;593;53.184;8.216;2023-08-12T12:04:00;100925.72;;;23.61;100.00
1207;BME280;593;53.184;8.216;2023-08-12T12:06:31;100944.59;;;23.71;100.00
1207;BME280;593;53.184;8.216;2023-08-12T12:09:00;100940.56;;;23.69;100.00
1207;BME280;593;53.184;8.216;2023-08-12T12:11:25;100935.09;;;23.72;100.00
1207;BME280;593;53.184;8.216;2023-08-12T12:13:51;100937.50;;;23.74;100.00
1207;BME280;593;53.184;8.216;2023-08-12T12:16:17;100937.22;;;23.79;100.00
1207;BME280;593;53.184;8.216;2023-08-12T12:18:43;100932.47;;;23.79;100.00
1207;BME280;593;53.184;8.216;2023-08-12T12:21:09;100921.78;;;23.81;100.00
1207;BME280;593;53.184;8.216;2023-08-12T12:23:37;100915.44;;;23.81;100.00
1207;BME280;593;53.184;8.216;2023-08-12T12:26:03;100905.22;;;23.85;100.00
1207;BME280;593;53.184;8.216;2023-08-12T12:28:29;100917.56;;;23.87;100.00
1207;BME280;593;53.184;8.216;2023-08-12T12:30:54;100920.34;;;23.87;100.00
1207;BME280;593;53.184;8.216;2023-08-12T12:33:20;100916.81;;;23.90;100.00
1207;BME280;593;53.184;8.216;2023-08-12T12:35:45;100913.25;;;23.90;100.00
1207;BME280;593;53.184;8.216;2023-08-12T12:38:11;100905.69;;;23.90;100.00
1207;BME280;593;53.184;8.216;2023-08-12T12:40:36;100901.38;;;23.93;100.00
1207;BME280;593;53.184;8.216;2023-08-12T12:43:03;100883.03;;;23.88;100.00
1207;BME280;593;53.184;8.216;2023-08-12T12:45:28;100881.59;;;23.94;100.00
1207;BME280;593;53.184;8.216;2023-08-12T12:47:54;100884.78;;;23.96;100.00
1207;BME280;593;53.184;8.216;2023-08-12T12:50:19;100876.06;;;23.98;100.00
1207;BME280;593;53.184;8.216;2023-08-12T12:52:44;100861.41;;;23.97;100.00
1207;BME280;593;53.184;8.216;2023-08-12T12:55:10;100853.50;;;23.99;100.00
1207;BME280;593;53.184;8.216;2023-08-12T12:57:35;100850.72;;;23.99;100.00
1207;BME280;593;53.184;8.216;2023-08-12T13:00:01;100859.03;;;23.99;100.00
1207;BME280;593;53.184;8.216;2023-08-12T13:02:26;100849.50;;;24.00;100.00
1207;BME280;593;53.184;8.216;2023-08-12T13:04:52;100847.53;;;24.01;100.00
1207;BME280;593;53.184;8.216;2023-08-12T13:07:18;100836.81;;;23.99;100.00
1207;BME280;593;53.184;8.216;2023-08-12T13:09:43;100828.09;;;24.01;100.00
1207;BME280;593;53.184;8.216;2023-08-12T13:12:09;100833.28;;;24.02;100.00